Time;durP1;ratioP1;P1;durP2;ratioP2;P2;SDS_P1;SDS_P2;PMS_P1;PMS_P2;Temp;Humidity;BMP_temperature;BMP_pressure;BME280_temperature;BME280_humidity;BME280_pressure;Samples;Min_cycle;Max_cycle;Signal;HPM_P1;HPM_P2
2021/04/25 00:02:04;;;;;;;;;;;15.80;94.80;;;;;;4995397;28;19910;-70
2021/04/25 00:04:30;;;;;;;;;;;15.80;94.60;;;;;;4995448;28;19953;-68
2021/04/25 00:06:57;;;;;;;;;;;15.90;94.70;;;;;;4995084;28;19914;-70
2021/04/25 00:09:27;;;;;;;;;;;15.80;94.70;;;;;;4995602;28;19916;-70
2021/04/25 00:11:54;;;;;;;;;;;15.90;94.90;;;;;;4997199;28;20340;-69
2021/04/25 00:14:21;;;;;;;;;;;15.90;95.00;;;;;;4996064;28;20292;-71
2021/04/25 00:16:51;;;;;;;;;;;16.00;95.10;;;;;;4995223;28;19914;-69
2021/04/25 00:19:17;;;;;;;;;;;16.10;95.20;;;;;;4995790;28;20351;-70
2021/04/25 00:21:44;;;;;;;;;;;16.20;95.00;;;;;;4995318;28;20287;-69
2021/04/25 00:24:11;;;;;;;;;;;16.20;95.10;;;;;;4996147;28;19917;-71
2021/04/25 00:26:38;;;;;;;;;;;16.30;95.20;;;;;;4997054;28;20384;-71
2021/04/25 00:29:04;;;;;;;;;;;16.30;95.30;;;;;;4999467;28;20280;-70
2021/04/25 00:31:32;;;;;;;;;;;16.40;95.00;;;;;;5002376;28;19949;-71
2021/04/25 00:33:59;;;;;;;;;;;16.40;95.10;;;;;;5005343;28;19973;-70
2021/04/25 00:36:27;;;;;;;;;;;16.40;95.00;;;;;;5006154;28;19910;-71
2021/04/25 00:38:55;;;;;;;;;;;16.50;95.10;;;;;;5004490;28;19910;-70
2021/04/25 00:41:21;;;;;;;;;;;16.60;95.00;;;;;;5001347;28;19929;-69
2021/04/25 00:43:48;;;;;;;;;;;16.70;95.30;;;;;;5005920;28;19910;-70
2021/04/25 00:46:15;;;;;;;;;;;16.80;94.90;;;;;;5007125;28;19910;-71
2021/04/25 00:48:42;;;;;;;;;;;16.90;94.90;;;;;;5006239;28;19917;-70
2021/04/25 00:51:11;;;;;;;;;;;17.00;94.70;;;;;;5004369;28;19998;-70
2021/04/25 00:53:38;;;;;;;;;;;17.00;95.30;;;;;;5006498;28;20361;-69
2021/04/25 00:56:05;;;;;;;;;;;17.10;95.30;;;;;;5006006;28;19914;-69
2021/04/25 00:58:31;;;;;;;;;;;17.10;95.40;;;;;;5006288;28;19993;-70
2021/04/25 01:00:58;;;;;;;;;;;17.20;95.40;;;;;;5006061;28;19929;-71
2021/04/25 01:03:24;;;;;;;;;;;17.40;95.00;;;;;;5006363;28;19909;-71
2021/04/25 01:05:52;;;;;;;;;;;17.40;95.20;;;;;;5005941;28;19910;-71
2021/04/25 01:08:18;;;;;;;;;;;17.70;95.40;;;;;;5006896;28;19925;-69
2021/04/25 01:10:45;;;;;;;;;;;17.90;95.10;;;;;;4997802;28;19928;-69
2021/04/25 01:13:15;;;;;;;;;;;18.30;94.70;;;;;;4994440;28;19933;-70
2021/04/25 01:15:42;;;;;;;;;;;18.60;94.20;;;;;;4997212;28;19953;-69
2021/04/25 01:18:08;;;;;;;;;;;18.80;94.00;;;;;;4996650;28;19954;-70
2021/04/25 01:20:35;;;;;;;;;;;19.00;94.00;;;;;;4994187;28;19999;-71
2021/04/25 01:23:05;;;;;;;;;;;19.10;93.80;;;;;;4994044;28;19917;-69
2021/04/25 01:25:31;;;;;;;;;;;19.40;93.20;;;;;;4993687;28;20364;-71
2021/04/25 01:27:58;;;;;;;;;;;19.30;93.70;;;;;;4993816;28;19917;-70
2021/04/25 01:30:27;;;;;;;;;;;19.10;94.00;;;;;;4993690;28;20021;-71
2021/04/25 01:32:57;;;;;;;;;;;18.80;94.60;;;;;;4993452;28;19937;-72
2021/04/25 01:35:25;;;;;;;;;;;18.70;95.00;;;;;;4993048;28;20347;-71
2021/04/25 01:37:52;;;;;;;;;;;18.60;94.90;;;;;;4993749;28;19916;-69
2021/04/25 01:40:20;;;;;;;;;;;18.60;95.40;;;;;;4993450;28;19932;-67
2021/04/25 01:42:47;;;;;;;;;;;18.60;95.50;;;;;;4994350;28;20001;-67
2021/04/25 01:45:20;;;;;;;;;;;18.70;95.70;;;;;;4996934;28;19917;-70
2021/04/25 01:47:57;;;;;;;;;;;18.70;94.90;;;;;;4997505;28;19910;-70
2021/04/25 01:50:24;;;;;;;;;;;18.60;95.20;;;;;;4997094;28;19925;-69
2021/04/25 01:52:53;;;;;;;;;;;18.60;95.20;;;;;;4997464;28;19910;-70
2021/04/25 01:55:20;;;;;;;;;;;18.50;95.30;;;;;;4997555;28;20341;-70
2021/04/25 01:57:47;;;;;;;;;;;18.50;95.10;;;;;;4996214;28;20364;-68
2021/04/25 02:00:15;;;;;;;;;;;18.50;94.90;;;;;;4997595;28;19914;-71
2021/04/25 02:02:43;;;;;;;;;;;18.60;94.50;;;;;;4997272;28;20024;-68
2021/04/25 02:05:10;;;;;;;;;;;18.60;95.00;;;;;;4997070;28;20340;-70
2021/04/25 02:07:37;;;;;;;;;;;18.60;95.30;;;;;;4997480;28;19917;-71
2021/04/25 02:10:07;;;;;;;;;;;18.70;95.60;;;;;;4997356;28;20053;-69
2021/04/25 02:12:34;;;;;;;;;;;18.90;95.40;;;;;;4997502;28;19972;-72
2021/04/25 02:15:01;;;;;;;;;;;19.00;94.60;;;;;;4997274;28;19910;-70
2021/04/25 02:17:28;;;;;;;;;;;19.10;94.70;;;;;;4997401;28;19914;-70
2021/04/25 02:19:54;;;;;;;;;;;19.30;93.90;;;;;;4996940;28;19913;-70
2021/04/25 02:22:21;;;;;;;;;;;19.10;94.40;;;;;;4997257;28;20380;-71
2021/04/25 02:24:48;;;;;;;;;;;19.00;94.40;;;;;;4997012;28;20316;-71
2021/04/25 02:27:14;;;;;;;;;;;19.00;93.50;;;;;;4997227;28;20475;-69
2021/04/25 02:29:41;;;;;;;;;;;19.10;93.10;;;;;;4997830;28;19913;-70
2021/04/25 02:32:08;;;;;;;;;;;19.10;92.00;;;;;;4997216;28;19910;-70
2021/04/25 02:34:34;;;;;;;;;;;19.10;91.70;;;;;;4996528;28;19916;-71
2021/04/25 02:37:01;;;;;;;;;;;19.10;92.50;;;;;;4997040;28;20248;-70
2021/04/25 02:39:28;;;;;;;;;;;18.90;92.70;;;;;;4997093;28;20372;-71
2021/04/25 02:41:56;;;;;;;;;;;18.80;91.70;;;;;;4997180;28;19917;-71
2021/04/25 02:44:22;;;;;;;;;;;18.80;92.50;;;;;;4995541;28;19913;-69
2021/04/25 02:46:49;;;;;;;;;;;18.80;93.20;;;;;;4996801;28;19916;-68
2021/04/25 02:49:16;;;;;;;;;;;18.80;93.20;;;;;;4996498;28;20361;-70
2021/04/25 02:51:43;;;;;;;;;;;18.90;92.90;;;;;;4995688;28;19922;-71
2021/04/25 02:54:11;;;;;;;;;;;19.00;95.10;;;;;;4995851;28;19910;-72
2021/04/25 02:56:37;;;;;;;;;;;19.10;97.20;;;;;;4996703;28;19910;-71
2021/04/25 02:59:05;;;;;;;;;;;19.00;96.60;;;;;;5012331;28;19914;-71
2021/04/25 03:01:32;;;;;;;;;;;19.00;97.50;;;;;;5016369;28;19956;-69
2021/04/25 03:03:59;;;;;;;;;;;18.90;99.00;;;;;;5015638;28;19945;-70
2021/04/25 03:06:27;;;;;;;;;;;18.80;99.20;;;;;;5015882;28;20360;-70
2021/04/25 03:08:54;;;;;;;;;;;18.70;99.50;;;;;;5016035;28;19913;-69
2021/04/25 03:11:21;;;;;;;;;;;18.80;99.90;;;;;;4998025;28;19937;-69
2021/04/25 03:13:47;;;;;;;;;;;18.80;99.80;;;;;;5015864;28;19980;-69
2021/04/25 03:16:15;;;;;;;;;;;18.80;99.90;;;;;;5015550;28;20245;-69
2021/04/25 03:18:42;;;;;;;;;;;18.90;99.90;;;;;;5015176;28;19939;-70
2021/04/25 03:21:12;;;;;;;;;;;18.90;99.40;;;;;;4997176;28;19909;-70
2021/04/25 03:23:39;;;;;;;;;;;18.80;99.90;;;;;;5015641;28;19957;-69
2021/04/25 03:26:05;;;;;;;;;;;18.80;99.70;;;;;;5015512;28;19914;-67
2021/04/25 03:28:32;;;;;;;;;;;18.70;99.80;;;;;;5015604;28;19910;-68
2021/04/25 03:31:00;;;;;;;;;;;18.90;99.70;;;;;;5014176;28;19965;-69
2021/04/25 03:33:26;;;;;;;;;;;19.00;98.80;;;;;;5015464;28;19913;-69
2021/04/25 03:35:56;;;;;;;;;;;19.20;98.60;;;;;;5015229;28;19916;-69
2021/04/25 03:38:25;;;;;;;;;;;19.30;99.00;;;;;;5015043;28;20356;-68
2021/04/25 03:40:53;;;;;;;;;;;19.40;98.60;;;;;;5016235;28;19926;-69
2021/04/25 03:43:19;;;;;;;;;;;19.40;99.10;;;;;;4998987;28;19914;-69
2021/04/25 03:45:47;;;;;;;;;;;19.30;98.90;;;;;;5019286;28;20342;-70
2021/04/25 03:48:13;;;;;;;;;;;19.20;99.00;;;;;;5002022;28;19925;-71
2021/04/25 03:50:40;;;;;;;;;;;19.10;99.00;;;;;;5015263;28;19944;-71
2021/04/25 03:53:06;;;;;;;;;;;19.10;99.10;;;;;;4997171;28;20290;-70
2021/04/25 03:55:33;;;;;;;;;;;19.10;99.10;;;;;;5014798;28;19987;-70
2021/04/25 03:58:00;;;;;;;;;;;19.10;99.50;;;;;;5015008;28;20374;-68
2021/04/25 04:00:28;;;;;;;;;;;19.00;99.80;;;;;;5015061;28;19909;-71
2021/04/25 04:02:55;;;;;;;;;;;18.90;99.50;;;;;;5014666;28;19910;-71
2021/04/25 04:05:21;;;;;;;;;;;18.80;99.90;;;;;;4981062;28;19956;-71
2021/04/25 04:07:48;;;;;;;;;;;18.90;99.90;;;;;;5013902;28;19910;-71
2021/04/25 04:10:15;;;;;;;;;;;18.80;99.90;;;;;;5014809;28;19924;-69
2021/04/25 04:12:42;;;;;;;;;;;18.80;99.90;;;;;;5015003;28;19910;-72
2021/04/25 04:15:08;;;;;;;;;;;18.90;99.90;;;;;;5015102;28;19910;-72
2021/04/25 04:17:35;;;;;;;;;;;19.00;99.90;;;;;;5014584;28;19975;-72
2021/04/25 04:20:03;;;;;;;;;;;19.10;99.90;;;;;;5014303;28;19909;-71
2021/04/25 04:22:30;;;;;;;;;;;19.20;99.90;;;;;;5014527;28;19932;-70
2021/04/25 04:24:56;;;;;;;;;;;19.20;99.90;;;;;;5014276;28;19909;-76
2021/04/25 04:27:23;;;;;;;;;;;19.10;99.70;;;;;;5014451;28;20376;-71
2021/04/25 04:29:50;;;;;;;;;;;19.10;99.70;;;;;;5009840;28;19960;-71
2021/04/25 04:32:17;;;;;;;;;;;19.10;99.90;;;;;;4994245;28;19910;-70
2021/04/25 04:34:44;;;;;;;;;;;19.00;99.90;;;;;;4994491;28;19920;-68
2021/04/25 04:37:10;;;;;;;;;;;18.90;99.90;;;;;;4994739;28;19910;-70
2021/04/25 04:39:37;;;;;;;;;;;19.00;99.90;;;;;;4994329;28;19910;-71
2021/04/25 04:42:04;;;;;;;;;;;19.00;99.90;;;;;;4994806;28;20013;-71
2021/04/25 04:44:30;;;;;;;;;;;19.00;99.90;;;;;;4993442;28;20012;-70
2021/04/25 04:46:57;;;;;;;;;;;19.00;99.90;;;;;;4994144;28;19910;-71
2021/04/25 04:49:24;;;;;;;;;;;18.90;99.90;;;;;;4994420;28;20372;-69
2021/04/25 04:51:50;;;;;;;;;;;18.80;99.90;;;;;;4994237;28;20419;-67
2021/04/25 04:54:17;;;;;;;;;;;18.70;99.90;;;;;;4993001;28;20391;-68
2021/04/25 04:56:44;;;;;;;;;;;18.60;99.90;;;;;;4994256;28;19914;-69
2021/04/25 04:59:11;;;;;;;;;;;18.60;99.90;;;;;;4994299;28;19914;-70
2021/04/25 05:01:37;;;;;;;;;;;18.50;99.90;;;;;;4993560;28;19910;-70
2021/04/25 05:04:05;;;;;;;;;;;18.60;99.90;;;;;;4994310;28;19921;-69
2021/04/25 05:06:32;;;;;;;;;;;18.60;99.90;;;;;;4994241;28;19910;-71
2021/04/25 05:08:58;;;;;;;;;;;18.60;99.90;;;;;;4994011;28;19937;-69
2021/04/25 05:11:25;;;;;;;;;;;18.70;99.90;;;;;;4995869;28;19918;-69
2021/04/25 05:13:52;;;;;;;;;;;18.70;99.90;;;;;;4999254;28;20261;-70
2021/04/25 05:16:19;;;;;;;;;;;18.80;99.90;;;;;;5000694;28;19910;-70
2021/04/25 05:18:45;;;;;;;;;;;18.80;99.90;;;;;;4995485;28;19913;-72
2021/04/25 05:21:13;;;;;;;;;;;18.60;99.90;;;;;;4994576;28;19949;-72
2021/04/25 05:23:39;;;;;;;;;;;18.50;99.90;;;;;;4994204;28;19917;-71
2021/04/25 05:26:06;;;;;;;;;;;18.50;99.90;;;;;;4993976;28;20000;-72
2021/04/25 05:28:33;;;;;;;;;;;18.40;99.90;;;;;;4994026;28;19910;-72
2021/04/25 05:31:01;;;;;;;;;;;18.40;99.90;;;;;;4993736;28;19925;-72
2021/04/25 05:33:28;;;;;;;;;;;18.30;99.90;;;;;;4993756;28;20450;-70
2021/04/25 05:35:55;;;;;;;;;;;18.30;99.90;;;;;;4993765;28;20290;-71
2021/04/25 05:38:22;;;;;;;;;;;18.30;99.90;;;;;;4993919;28;19917;-71
2021/04/25 05:40:49;;;;;;;;;;;18.30;99.90;;;;;;4993338;28;19929;-71
2021/04/25 05:43:15;;;;;;;;;;;18.40;99.90;;;;;;4993738;28;20329;-71
2021/04/25 05:45:42;;;;;;;;;;;18.40;99.90;;;;;;4993261;28;20417;-71
2021/04/25 05:48:09;;;;;;;;;;;18.40;99.90;;;;;;4993739;28;20360;-72
2021/04/25 05:50:35;;;;;;;;;;;18.40;99.90;;;;;;4993437;28;19918;-72
2021/04/25 05:53:03;;;;;;;;;;;18.30;99.90;;;;;;4993641;28;20004;-70
2021/04/25 05:55:29;;;;;;;;;;;18.20;99.90;;;;;;4993627;28;20287;-71
2021/04/25 05:57:56;;;;;;;;;;;18.10;99.90;;;;;;4993605;28;19960;-70
2021/04/25 06:00:25;;;;;;;;;;;18.10;99.90;;;;;;4992996;28;20268;-70
2021/04/25 06:02:52;;;;;;;;;;;18.00;99.90;;;;;;4993243;28;20404;-71
2021/04/25 06:05:19;;;;;;;;;;;18.00;99.90;;;;;;4993731;28;19961;-71
2021/04/25 06:07:51;;;;;;;;;;;18.00;99.90;;;;;;4993434;28;20376;-70
2021/04/25 06:10:19;;;;;;;;;;;18.00;99.90;;;;;;4993496;28;19992;-72
2021/04/25 06:12:48;;;;;;;;;;;18.00;99.90;;;;;;4993518;28;19910;-70
2021/04/25 06:15:15;;;;;;;;;;;18.00;99.90;;;;;;4993016;28;19917;-69
2021/04/25 06:17:42;;;;;;;;;;;17.90;99.90;;;;;;4993598;28;19914;-70
2021/04/25 06:20:10;;;;;;;;;;;17.90;99.90;;;;;;4992432;28;20272;-70
2021/04/25 06:22:36;;;;;;;;;;;17.80;99.90;;;;;;4993602;28;19920;-70
2021/04/25 06:25:04;;;;;;;;;;;17.80;99.90;;;;;;4993105;28;20001;-70
2021/04/25 06:27:30;;;;;;;;;;;17.80;99.90;;;;;;4992246;28;19914;-69
2021/04/25 06:29:57;;;;;;;;;;;17.70;99.90;;;;;;4993959;28;19937;-68
2021/04/25 06:32:24;;;;;;;;;;;17.70;99.90;;;;;;4997130;28;19960;-69
2021/04/25 06:34:50;;;;;;;;;;;17.70;99.90;;;;;;4996734;28;19909;-70
2021/04/25 06:37:17;;;;;;;;;;;17.70;99.90;;;;;;4997271;28;19914;-69
2021/04/25 06:39:43;;;;;;;;;;;17.60;99.90;;;;;;5000422;28;19926;-70
2021/04/25 06:42:10;;;;;;;;;;;17.70;99.90;;;;;;4999045;28;19952;-69
2021/04/25 06:44:37;;;;;;;;;;;17.60;99.90;;;;;;5002533;28;20284;-69
2021/04/25 06:47:03;;;;;;;;;;;17.60;99.90;;;;;;4997191;28;19918;-70
2021/04/25 06:49:33;;;;;;;;;;;17.60;99.90;;;;;;4996745;28;19916;-70
2021/04/25 06:52:00;;;;;;;;;;;17.60;99.90;;;;;;4996557;28;20024;-69
2021/04/25 06:54:27;;;;;;;;;;;17.60;99.90;;;;;;4996307;28;19910;-71
2021/04/25 06:56:57;;;;;;;;;;;17.60;99.90;;;;;;4996176;28;19910;-69
2021/04/25 06:59:23;;;;;;;;;;;17.60;99.90;;;;;;4996663;28;19933;-71
2021/04/25 07:01:50;;;;;;;;;;;17.60;99.90;;;;;;4996834;28;19961;-71
2021/04/25 07:04:16;;;;;;;;;;;17.70;99.90;;;;;;4996529;28;19918;-70
2021/04/25 07:06:43;;;;;;;;;;;17.70;99.90;;;;;;4996394;28;20379;-70
2021/04/25 07:09:10;;;;;;;;;;;17.60;99.90;;;;;;4996349;28;20082;-70
2021/04/25 07:11:36;;;;;;;;;;;17.60;99.90;;;;;;4996196;28;19921;-70
2021/04/25 07:14:03;;;;;;;;;;;17.50;99.90;;;;;;4996407;28;20424;-70
2021/04/25 07:16:31;;;;;;;;;;;17.50;99.90;;;;;;4996222;28;19916;-70
2021/04/25 07:18:57;;;;;;;;;;;17.50;99.90;;;;;;4995976;28;19910;-68
2021/04/25 07:21:26;;;;;;;;;;;17.50;99.90;;;;;;4996209;28;19914;-69
2021/04/25 07:23:52;;;;;;;;;;;17.50;99.90;;;;;;4994708;28;20230;-70
2021/04/25 07:26:19;;;;;;;;;;;17.50;99.90;;;;;;4996060;28;19949;-70
2021/04/25 07:28:48;;;;;;;;;;;17.50;99.90;;;;;;4996021;28;19945;-69
2021/04/25 07:31:15;;;;;;;;;;;17.50;99.90;;;;;;4995798;28;19965;-67
2021/04/25 07:33:42;;;;;;;;;;;17.50;99.90;;;;;;4995756;28;19932;-70
2021/04/25 07:36:09;;;;;;;;;;;17.50;99.90;;;;;;4995940;28;20280;-68
2021/04/25 07:38:39;;;;;;;;;;;17.50;99.90;;;;;;4995543;28;20004;-70
2021/04/25 07:41:06;;;;;;;;;;;17.50;99.90;;;;;;4995265;28;19929;-70
2021/04/25 07:43:33;;;;;;;;;;;17.50;99.90;;;;;;4995907;28;20364;-70
2021/04/25 07:45:59;;;;;;;;;;;17.50;99.90;;;;;;4995674;28;19910;-68
2021/04/25 07:48:26;;;;;;;;;;;17.40;99.90;;;;;;4996091;28;19917;-69
2021/04/25 07:50:53;;;;;;;;;;;17.40;99.90;;;;;;4995359;28;20007;-70
2021/04/25 07:53:20;;;;;;;;;;;17.40;99.90;;;;;;4995282;28;19948;-69
2021/04/25 07:55:46;;;;;;;;;;;17.30;99.90;;;;;;4995619;28;19914;-70
2021/04/25 07:58:13;;;;;;;;;;;17.30;99.90;;;;;;4995532;28;19917;-71
2021/04/25 08:00:40;;;;;;;;;;;17.20;99.90;;;;;;4995651;28;19910;-73
2021/04/25 08:03:10;;;;;;;;;;;17.20;99.90;;;;;;4994824;28;20280;-71
2021/04/25 08:05:37;;;;;;;;;;;17.20;99.90;;;;;;4995324;28;19916;-72
2021/04/25 08:08:04;;;;;;;;;;;17.10;99.90;;;;;;5012776;28;20032;-70
2021/04/25 08:10:30;;;;;;;;;;;17.00;99.90;;;;;;5022343;28;19924;-70
2021/04/25 08:12:57;;;;;;;;;;;17.00;99.90;;;;;;5023445;28;19910;-70
2021/04/25 08:15:25;;;;;;;;;;;17.00;99.90;;;;;;5017163;28;19948;-70
2021/04/25 08:17:57;;;;;;;;;;;16.90;99.90;;;;;;5014517;28;19914;-71
2021/04/25 08:20:24;;;;;;;;;;;16.90;99.90;;;;;;5014611;28;19969;-72
2021/04/25 08:22:51;;;;;;;;;;;16.90;99.90;;;;;;5014511;28;19917;-71
2021/04/25 08:25:19;;;;;;;;;;;16.90;99.90;;;;;;5014509;28;19951;-71
2021/04/25 08:27:46;;;;;;;;;;;16.90;99.90;;;;;;5014467;28;19910;-72
2021/04/25 08:30:13;;;;;;;;;;;16.80;99.90;;;;;;5014385;28;19925;-70
2021/04/25 08:32:39;;;;;;;;;;;16.80;99.90;;;;;;5014572;28;19984;-71
2021/04/25 08:35:08;;;;;;;;;;;16.80;99.90;;;;;;5013753;28;19909;-72
2021/04/25 08:37:35;;;;;;;;;;;16.70;99.90;;;;;;5013849;28;20365;-70
2021/04/25 08:40:03;;;;;;;;;;;16.70;99.90;;;;;;5014001;28;20372;-68
2021/04/25 08:42:30;;;;;;;;;;;16.70;99.90;;;;;;5014391;28;19972;-68
2021/04/25 08:44:56;;;;;;;;;;;16.70;99.90;;;;;;5014064;28;19913;-70
2021/04/25 08:47:24;;;;;;;;;;;16.70;99.90;;;;;;5014244;28;19909;-71
2021/04/25 08:49:52;;;;;;;;;;;16.70;99.90;;;;;;5014216;28;19909;-71
2021/04/25 08:52:21;;;;;;;;;;;16.70;99.90;;;;;;5007095;28;19929;-68
2021/04/25 08:54:55;;;;;;;;;;;16.70;99.90;;;;;;4999610;28;19910;-69
2021/04/25 08:57:22;;;;;;;;;;;16.70;99.90;;;;;;5005928;28;19910;-69
2021/04/25 08:59:49;;;;;;;;;;;16.70;99.90;;;;;;5002535;28;19914;-69
2021/04/25 09:02:15;;;;;;;;;;;16.60;99.90;;;;;;4996843;28;19909;-70
2021/04/25 09:04:42;;;;;;;;;;;16.60;99.90;;;;;;4994418;28;20008;-67
2021/04/25 09:07:14;;;;;;;;;;;16.50;99.90;;;;;;4994299;28;20056;-70
2021/04/25 09:09:45;;;;;;;;;;;16.50;99.90;;;;;;4994406;28;19910;-72
2021/04/25 09:12:15;;;;;;;;;;;16.50;99.90;;;;;;4994409;28;20360;-73
2021/04/25 09:14:42;;;;;;;;;;;16.50;99.90;;;;;;4977623;28;19914;-73
2021/04/25 09:17:09;;;;;;;;;;;16.40;99.90;;;;;;4976741;28;19910;-69
2021/04/25 09:19:50;;;;;;;;;;;16.40;99.90;;;;;;4976803;28;19914;-68
2021/04/25 09:22:17;;;;;;;;;;;16.40;99.90;;;;;;4998999;28;20312;-68
2021/04/25 09:24:44;;;;;;;;;;;16.40;99.90;;;;;;5007745;28;20324;-69
2021/04/25 09:27:10;;;;;;;;;;;16.40;99.90;;;;;;5013832;28;20284;-71
2021/04/25 09:29:47;;;;;;;;;;;16.30;99.90;;;;;;5011705;28;19909;-70
2021/04/25 09:32:24;;;;;;;;;;;16.30;99.90;;;;;;5011588;28;19921;-71
2021/04/25 09:34:50;;;;;;;;;;;16.30;99.90;;;;;;5012265;28;20253;-71
2021/04/25 09:37:19;;;;;;;;;;;16.20;99.90;;;;;;5014212;28;19913;-68
2021/04/25 09:40:18;;;;;;;;;;;16.20;99.90;;;;;;5013886;28;20017;-70
2021/04/25 09:43:06;;;;;;;;;;;16.20;99.90;;;;;;4984471;28;19933;-71
2021/04/25 09:45:34;;;;;;;;;;;16.20;99.90;;;;;;5013448;28;19956;-72
2021/04/25 09:48:01;;;;;;;;;;;16.20;99.90;;;;;;5013583;28;19949;-71
2021/04/25 09:50:31;;;;;;;;;;;16.20;99.90;;;;;;5013344;28;19918;-70
2021/04/25 09:52:58;;;;;;;;;;;16.30;99.90;;;;;;5013130;28;19917;-72
2021/04/25 09:55:25;;;;;;;;;;;16.20;99.90;;;;;;5013232;28;20298;-70
2021/04/25 09:57:53;;;;;;;;;;;16.20;99.90;;;;;;5013211;28;19916;-70
2021/04/25 10:00:20;;;;;;;;;;;16.10;99.90;;;;;;5013237;28;19909;-70
2021/04/25 10:03:19;;;;;;;;;;;16.20;99.90;;;;;;5012930;28;19949;-70
2021/04/25 10:06:18;;;;;;;;;;;16.20;99.90;;;;;;5004253;28;19910;-71
2021/04/25 10:08:49;;;;;;;;;;;16.10;99.90;;;;;;5005202;28;19909;-71
2021/04/25 10:11:16;;;;;;;;;;;16.10;99.90;;;;;;5016833;28;19993;-71
2021/04/25 10:13:47;;;;;;;;;;;16.10;99.90;;;;;;5017037;28;19967;-71
2021/04/25 10:16:17;;;;;;;;;;;16.10;99.90;;;;;;5017011;28;19913;-71
2021/04/25 10:18:44;;;;;;;;;;;16.10;99.90;;;;;;5016847;28;20004;-70
2021/04/25 10:21:11;;;;;;;;;;;16.10;99.90;;;;;;5002967;28;19916;-69
2021/04/25 10:23:38;;;;;;;;;;;16.00;99.90;;;;;;4997110;28;19910;-70
2021/04/25 10:26:15;;;;;;;;;;;16.00;99.90;;;;;;4997296;28;19996;-69
2021/04/25 10:29:02;;;;;;;;;;;16.00;99.90;;;;;;4996728;28;20012;-70
2021/04/25 10:31:30;;;;;;;;;;;16.10;99.90;;;;;;4997210;28;19944;-69
2021/04/25 10:34:00;;;;;;;;;;;16.10;99.90;;;;;;4997066;28;20004;-70
2021/04/25 10:36:45;;;;;;;;;;;16.10;99.90;;;;;;4997031;28;19929;-69
2021/04/25 10:39:30;;;;;;;;;;;16.10;99.90;;;;;;4996976;28;19941;-70
2021/04/25 10:42:15;;;;;;;;;;;16.10;99.90;;;;;;4997009;28;19928;-69
2021/04/25 10:45:02;;;;;;;;;;;16.10;99.90;;;;;;4996995;28;20013;-69
2021/04/25 10:47:30;;;;;;;;;;;16.10;99.90;;;;;;4997018;28;19996;-70
2021/04/25 10:49:59;;;;;;;;;;;16.10;99.90;;;;;;4996622;28;19910;-70
2021/04/25 10:52:30;;;;;;;;;;;16.10;99.90;;;;;;4996816;28;19917;-71
2021/04/25 10:55:21;;;;;;;;;;;16.00;99.90;;;;;;4996677;28;19933;-69
2021/04/25 10:57:54;;;;;;;;;;;15.90;99.90;;;;;;4996647;28;19988;-68
2021/04/25 11:00:41;;;;;;;;;;;16.00;99.90;;;;;;4996633;28;19913;-68
2021/04/25 11:03:11;;;;;;;;;;;15.90;99.90;;;;;;4996418;28;19910;-71
2021/04/25 11:05:38;;;;;;;;;;;15.90;99.90;;;;;;4996669;28;19932;-71
2021/04/25 11:08:06;;;;;;;;;;;15.90;99.90;;;;;;4999409;28;20387;-70
2021/04/25 11:10:49;;;;;;;;;;;16.00;99.90;;;;;;5000306;28;19992;-71
2021/04/25 11:13:37;;;;;;;;;;;16.00;99.90;;;;;;5002112;28;19957;-71
2021/04/25 11:18:52;;;;;;;;;;;16.00;99.90;;;;;;4996218;28;19917;-72
2021/04/25 11:23:55;;;;;;;;;;;16.00;99.90;;;;;;4996244;28;19917;-71
2021/04/25 11:26:39;;;;;;;;;;;15.90;99.90;;;;;;4996207;28;19914;-70
2021/04/25 11:29:08;;;;;;;;;;;16.00;99.90;;;;;;4995638;28;19966;-72
2021/04/25 11:31:53;;;;;;;;;;;16.00;99.90;;;;;;4995907;28;19995;-72
2021/04/25 11:34:27;;;;;;;;;;;16.00;99.90;;;;;;4996045;28;19910;-71
2021/04/25 11:36:56;;;;;;;;;;;16.00;99.90;;;;;;4995970;28;19910;-70
2021/04/25 11:39:28;;;;;;;;;;;16.00;99.90;;;;;;4995674;28;19996;-71
2021/04/25 11:41:55;;;;;;;;;;;16.00;99.90;;;;;;4994945;28;19964;-70
2021/04/25 11:44:26;;;;;;;;;;;16.10;99.90;;;;;;4994776;28;19960;-70
2021/04/25 11:46:53;;;;;;;;;;;16.10;99.90;;;;;;4996119;28;19910;-70
2021/04/25 11:49:32;;;;;;;;;;;16.10;99.90;;;;;;4996336;28;19910;-69
2021/04/25 11:52:08;;;;;;;;;;;16.00;99.90;;;;;;4995537;28;19964;-70
2021/04/25 11:54:35;;;;;;;;;;;16.00;99.90;;;;;;4995828;28;19913;-69
2021/04/25 11:57:08;;;;;;;;;;;16.00;99.90;;;;;;4978981;28;19914;-68
2021/04/25 11:59:37;;;;;;;;;;;16.00;99.90;;;;;;4995210;28;19910;-68
2021/04/25 12:02:10;;;;;;;;;;;15.90;99.90;;;;;;4995620;28;19936;-70
2021/04/25 12:04:43;;;;;;;;;;;15.90;99.90;;;;;;4995288;28;19922;-70
2021/04/25 12:07:10;;;;;;;;;;;15.90;99.90;;;;;;4995372;28;19914;-70
2021/04/25 12:09:38;;;;;;;;;;;15.90;99.90;;;;;;4995412;28;19944;-71
2021/04/25 12:12:06;;;;;;;;;;;15.90;99.90;;;;;;4995407;28;19918;-71
2021/04/25 12:14:33;;;;;;;;;;;15.90;99.90;;;;;;4994711;28;19977;-72
2021/04/25 12:17:12;;;;;;;;;;;15.90;99.90;;;;;;4994827;28;19980;-69
2021/04/25 12:19:38;;;;;;;;;;;15.90;99.90;;;;;;4995078;28;19917;-71
2021/04/25 12:22:05;;;;;;;;;;;15.80;99.90;;;;;;4995065;28;20921;-71
2021/04/25 12:24:33;;;;;;;;;;;15.80;99.90;;;;;;4995114;28;19910;-71
2021/04/25 12:27:00;;;;;;;;;;;15.80;99.90;;;;;;4994338;28;19910;-70
2021/04/25 12:29:36;;;;;;;;;;;15.80;99.90;;;;;;4993711;28;19995;-71
2021/04/25 12:32:03;;;;;;;;;;;15.70;99.90;;;;;;4994892;28;19925;-71
2021/04/25 12:34:32;;;;;;;;;;;15.70;99.90;;;;;;4994558;28;19910;-70
2021/04/25 12:37:00;;;;;;;;;;;15.70;99.90;;;;;;4998001;28;20303;-70
2021/04/25 12:39:40;;;;;;;;;;;15.60;99.90;;;;;;5000726;28;19917;-69
2021/04/25 12:42:16;;;;;;;;;;;15.60;99.90;;;;;;5003170;28;19925;-71
2021/04/25 12:44:43;;;;;;;;;;;15.60;99.90;;;;;;4995716;28;19910;-70
2021/04/25 12:47:10;;;;;;;;;;;15.60;99.90;;;;;;4994840;28;19952;-71
2021/04/25 12:49:39;;;;;;;;;;;15.60;99.90;;;;;;4994641;28;19979;-71
2021/04/25 12:52:06;;;;;;;;;;;15.60;99.90;;;;;;4994419;28;19924;-70
2021/04/25 12:54:43;;;;;;;;;;;15.70;99.90;;;;;;4994629;28;19909;-71
2021/04/25 12:57:10;;;;;;;;;;;15.60;99.90;;;;;;4994383;28;19910;-71
2021/04/25 12:59:38;;;;;;;;;;;15.60;99.90;;;;;;4993278;28;19914;-71
2021/04/25 13:02:12;;;;;;;;;;;15.70;99.90;;;;;;4994459;28;19946;-71
2021/04/25 13:04:39;;;;;;;;;;;15.70;99.90;;;;;;4994359;28;19910;-72
2021/04/25 13:07:16;;;;;;;;;;;15.70;99.90;;;;;;4993831;28;20372;-72
2021/04/25 13:09:44;;;;;;;;;;;15.70;99.90;;;;;;4994206;28;19910;-71
2021/04/25 13:12:17;;;;;;;;;;;15.60;99.90;;;;;;4994197;28;19917;-72
2021/04/25 13:15:01;;;;;;;;;;;15.60;99.90;;;;;;4993853;28;20268;-71
2021/04/25 13:17:29;;;;;;;;;;;15.60;99.90;;;;;;4994052;28;19910;-70
2021/04/25 13:19:56;;;;;;;;;;;15.60;99.90;;;;;;4993887;28;19972;-71
2021/04/25 13:22:23;;;;;;;;;;;15.50;99.90;;;;;;4993872;28;19910;-71
2021/04/25 13:24:50;;;;;;;;;;;15.50;99.90;;;;;;4993713;28;20004;-71
2021/04/25 13:27:18;;;;;;;;;;;15.60;99.90;;;;;;4993929;28;19936;-70
2021/04/25 13:29:47;;;;;;;;;;;15.50;99.90;;;;;;4993395;28;19957;-70
2021/04/25 13:32:14;;;;;;;;;;;15.50;99.90;;;;;;4992652;28;19922;-70
2021/04/25 13:34:44;;;;;;;;;;;15.60;99.90;;;;;;4994087;28;19913;-70
2021/04/25 13:37:11;;;;;;;;;;;15.60;99.90;;;;;;4993331;28;19917;-71
2021/04/25 13:39:38;;;;;;;;;;;15.70;99.90;;;;;;4993401;28;19910;-71
2021/04/25 13:42:05;;;;;;;;;;;15.60;99.90;;;;;;4993767;28;19913;-71
2021/04/25 13:44:33;;;;;;;;;;;15.50;99.90;;;;;;4993859;28;19910;-71
2021/04/25 13:47:02;;;;;;;;;;;15.40;99.90;;;;;;4993599;28;19916;-70
2021/04/25 13:49:29;;;;;;;;;;;15.30;99.90;;;;;;4993770;28;20317;-70
2021/04/25 13:51:56;;;;;;;;;;;15.20;99.90;;;;;;4993749;28;19918;-69
2021/04/25 13:54:22;;;;;;;;;;;15.10;99.90;;;;;;4993787;28;19917;-72
2021/04/25 13:56:49;;;;;;;;;;;15.00;99.90;;;;;;4993349;28;19971;-71
2021/04/25 13:59:16;;;;;;;;;;;15.00;99.90;;;;;;4993499;28;19997;-71
2021/04/25 14:01:42;;;;;;;;;;;14.90;99.90;;;;;;4993672;28;19909;-69
2021/04/25 14:04:10;;;;;;;;;;;14.90;99.90;;;;;;4993645;28;20287;-71
2021/04/25 14:06:37;;;;;;;;;;;14.80;99.90;;;;;;4995359;28;19968;-69
2021/04/25 14:09:05;;;;;;;;;;;14.80;99.90;;;;;;5002702;28;19940;-70
2021/04/25 14:11:31;;;;;;;;;;;14.80;99.90;;;;;;5004138;28;19918;-70
2021/04/25 14:13:58;;;;;;;;;;;14.90;99.90;;;;;;4999026;28;20264;-70
2021/04/25 14:16:28;;;;;;;;;;;14.90;99.90;;;;;;4993689;28;20008;-70
2021/04/25 14:18:58;;;;;;;;;;;14.90;99.90;;;;;;4992890;28;19914;-71
2021/04/25 14:21:26;;;;;;;;;;;14.90;99.90;;;;;;4993259;28;19921;-71
2021/04/25 14:23:52;;;;;;;;;;;14.90;99.90;;;;;;4992273;28;19918;-71
2021/04/25 14:26:22;;;;;;;;;;;14.90;99.90;;;;;;4993555;28;19989;-71
2021/04/25 14:28:49;;;;;;;;;;;15.00;99.90;;;;;;4993217;28;19964;-71
2021/04/25 14:31:15;;;;;;;;;;;15.00;99.90;;;;;;4993207;28;20380;-70